Time;durP1;ratioP1;P1;durP2;ratioP2;P2;SDS_P1;SDS_P2;PMS_P1;PMS_P2;Temp;Humidity;BMP_temperature;BMP_pressure;BME280_temperature;BME280_humidity;BME280_pressure;Samples;Min_cycle;Max_cycle;Signal;HPM_P1;HPM_P2
2022/06/10 00:00:08;;;;;;;;;;;;;;;14.02;77.41;98348.31;6246185;23;19920;-77
2022/06/10 00:02:34;;;;;;;;;;;;;;;13.91;77.06;98345.13;6245931;23;20290;-77
2022/06/10 00:05:00;;;;;;;;;;;;;;;13.88;77.30;98350.81;6245634;23;20008;-77
2022/06/10 00:07:27;;;;;;;;;;;;;;;13.84;77.59;98353.00;6218912;23;20340;-77
2022/06/10 00:09:53;;;;;;;;;;;;;;;13.67;77.86;98348.66;6245936;23;20390;-77
2022/06/10 00:12:19;;;;;;;;;;;;;;;13.52;78.37;98352.00;6221041;23;20348;-77
2022/06/10 00:14:44;;;;;;;;;;;;;;;13.46;78.86;98357.16;6221176;23;19973;-77
2022/06/10 00:17:10;;;;;;;;;;;;;;;13.49;78.99;98357.69;6221160;23;20366;-77
2022/06/10 00:19:36;;;;;;;;;;;;;;;13.54;78.84;98359.88;6221122;23;20248;-77
2022/06/10 00:22:01;;;;;;;;;;;;;;;13.59;78.59;98357.53;6221076;23;20295;-78
2022/06/10 00:24:27;;;;;;;;;;;;;;;13.62;78.40;98351.00;6220998;23;20366;-77
2022/06/10 00:26:53;;;;;;;;;;;;;;;13.59;78.53;98357.53;6220430;23;19919;-77
2022/06/10 00:29:19;;;;;;;;;;;;;;;13.63;78.88;98358.88;6247769;23;20006;-77
2022/06/10 00:31:44;;;;;;;;;;;;;;;13.60;78.86;98359.22;6220904;23;20018;-76
2022/06/10 00:34:10;;;;;;;;;;;;;;;13.68;78.90;98361.91;6220638;23;20256;-77
2022/06/10 00:36:36;;;;;;;;;;;;;;;13.58;78.95;98377.34;6220806;23;20389;-76
2022/06/10 00:39:02;;;;;;;;;;;;;;;13.74;78.79;98372.00;6220822;23;20302;-77
2022/06/10 00:41:28;;;;;;;;;;;;;;;13.67;78.65;98384.41;6195576;23;19930;-76
2022/06/10 00:43:54;;;;;;;;;;;;;;;13.57;78.80;98387.22;6195683;23;19951;-77
2022/06/10 00:46:35;;;;;;;;;;;;;;;13.50;79.02;98382.69;6195812;23;20259;-76
2022/06/10 00:49:10;;;;;;;;;;;;;;;13.48;79.53;98390.06;6220719;23;19919;-77
2022/06/10 00:51:37;;;;;;;;;;;;;;;13.47;79.88;98389.25;6195431;23;19926;-77
2022/06/10 00:54:14;;;;;;;;;;;;;;;13.50;79.61;98382.69;6247928;23;19920;-77
2022/06/10 00:56:43;;;;;;;;;;;;;;;13.47;79.68;98397.28;6220853;23;20420;-77
2022/06/10 00:59:13;;;;;;;;;;;;;;;13.47;79.94;98394.59;6195162;23;19920;-76
2022/06/10 01:01:40;;;;;;;;;;;;;;;13.57;79.35;98387.22;6195654;23;20002;-77
2022/06/10 01:04:06;;;;;;;;;;;;;;;13.60;79.14;98380.69;6220499;23;19942;-77
2022/06/10 01:06:32;;;;;;;;;;;;;;;13.58;79.40;98385.41;6220677;23;20339;-77
2022/06/10 01:08:58;;;;;;;;;;;;;;;13.63;79.21;98391.09;6247290;23;20306;-76
2022/06/10 01:11:35;;;;;;;;;;;;;;;13.58;79.17;98388.94;6247175;23;19919;-76
2022/06/10 01:14:01;;;;;;;;;;;;;;;13.56;79.27;98398.97;6220412;23;19919;-76
2022/06/10 01:17:05;;;;;;;;;;;;;;;13.60;78.93;98404.84;6220161;23;19997;-76
2022/06/10 01:19:49;;;;;;;;;;;;;;;13.62;79.19;98407.41;6124679;23;19928;-77
2022/06/10 01:22:32;;;;;;;;;;;;;;;13.64;78.97;98403.53;6100341;23;20071;-77
2022/06/10 01:24:57;;;;;;;;;;;;;;;13.66;79.31;98409.59;6210090;23;20400;-77
2022/06/10 01:30:10;;;;;;;;;;;;;;;13.64;79.20;98397.31;6220428;23;19926;-76
2022/06/10 01:32:51;;;;;;;;;;;;;;;13.73;78.72;98402.53;6220207;23;19919;-76
2022/06/10 01:35:40;;;;;;;;;;;;;;;13.73;78.97;98407.91;6245456;23;19923;-76
2022/06/10 01:38:26;;;;;;;;;;;;;;;13.81;78.38;98415.97;6220077;23;20358;-78
2022/06/10 01:41:10;;;;;;;;;;;;;;;13.82;78.33;98412.28;6242707;23;20275;-77
2022/06/10 01:43:55;;;;;;;;;;;;;;;13.80;78.56;98408.94;6219626;23;19978;-77
2022/06/10 01:46:30;;;;;;;;;;;;;;;13.84;78.25;98406.72;6220648;23;19919;-77
2022/06/10 01:49:11;;;;;;;;;;;;;;;13.83;78.24;98419.31;6246396;23;19919;-76
2022/06/10 01:51:46;;;;;;;;;;;;;;;13.87;78.53;98414.47;6220348;23;19926;-77
2022/06/10 01:54:18;;;;;;;;;;;;;;;13.94;78.11;98420.00;6220537;23;19919;-78
2022/06/10 01:56:47;;;;;;;;;;;;;;;13.93;78.13;98412.97;6220450;23;19927;-77
2022/06/10 01:59:15;;;;;;;;;;;;;;;14.07;77.76;98412.31;6246761;23;19920;-78
2022/06/10 02:01:43;;;;;;;;;;;;;;;14.09;78.04;98403.06;6246975;23;19947;-78
2022/06/10 02:04:18;;;;;;;;;;;;;;;14.13;77.37;98418.84;6194765;23;19970;-77
2022/06/10 02:07:06;;;;;;;;;;;;;;;14.12;77.81;98427.94;6122590;23;20229;-78
2022/06/10 02:09:36;;;;;;;;;;;;;;;13.96;77.59;98439.50;6219830;23;19923;-78
2022/06/10 02:12:06;;;;;;;;;;;;;;;13.90;78.02;98418.66;6245053;23;19919;-77
2022/06/10 02:14:38;;;;;;;;;;;;;;;14.01;77.71;98427.25;6219925;23;20235;-78
2022/06/10 02:17:05;;;;;;;;;;;;;;;14.06;77.52;98426.75;6219592;23;19919;-77
2022/06/10 02:19:35;;;;;;;;;;;;;;;14.02;77.00;98428.91;6219689;23;20002;-78
2022/06/10 02:22:12;;;;;;;;;;;;;;;13.95;76.99;98427.06;6246553;23;20006;-78
2022/06/10 02:24:40;;;;;;;;;;;;;;;14.17;76.86;98434.47;6246875;23;20382;-77
2022/06/10 02:27:09;;;;;;;;;;;;;;;14.21;75.77;98429.59;6219753;23;19993;-78
2022/06/10 02:29:44;;;;;;;;;;;;;;;14.29;75.64;98427.78;6219623;23;19920;-78
2022/06/10 02:32:10;;;;;;;;;;;;;;;14.46;74.88;98425.06;6219175;23;19927;-79
2022/06/10 02:34:36;;;;;;;;;;;;;;;14.53;74.21;98428.78;6194751;23;19920;-78
2022/06/10 02:37:13;;;;;;;;;;;;;;;14.59;74.25;98425.38;6219390;23;19920;-77
2022/06/10 02:39:51;;;;;;;;;;;;;;;14.68;73.98;98418.16;6244973;23;19924;-78
2022/06/10 02:42:27;;;;;;;;;;;;;;;14.67;73.36;98419.16;6193951;23;19946;-78
2022/06/10 02:45:19;;;;;;;;;;;;;;;14.78;73.18;98425.03;6194571;23;19945;-77
2022/06/10 02:48:08;;;;;;;;;;;;;;;14.90;72.72;98427.38;6190060;23;20351;-77
2022/06/10 02:50:34;;;;;;;;;;;;;;;14.82;72.18;98426.38;6229812;23;19919;-77
2022/06/10 02:53:03;;;;;;;;;;;;;;;14.87;72.05;98427.69;6219757;23;20343;-78
2022/06/10 02:55:28;;;;;;;;;;;;;;;14.82;72.33;98426.38;6169011;23;19923;-79
2022/06/10 03:01:12;;;;;;;;;;;;;;;15.09;71.75;98434.19;6218904;23;20307;-79
2022/06/10 03:03:57;;;;;;;;;;;;;;;15.18;71.31;98436.66;6244331;23;20355;-78
2022/06/10 03:06:31;;;;;;;;;;;;;;;15.30;71.38;98440.66;6219307;23;20344;-77
2022/06/10 03:09:07;;;;;;;;;;;;;;;15.36;70.87;98439.13;6218620;23;19966;-78
2022/06/10 03:11:32;;;;;;;;;;;;;;;15.44;70.62;98440.94;6219285;23;20009;-75
2022/06/10 03:14:17;;;;;;;;;;;;;;;15.40;70.66;98455.78;6218992;23;19978;-76
2022/06/10 03:17:04;;;;;;;;;;;;;;;15.26;70.92;98454.63;6219397;23;19925;-76
2022/06/10 03:19:36;;;;;;;;;;;;;;;15.34;70.86;98451.06;6194207;23;19920;-77
2022/06/10 03:22:02;;;;;;;;;;;;;;;15.35;70.84;98459.00;6219294;23;19919;-76
2022/06/10 03:24:40;;;;;;;;;;;;;;;15.36;71.18;98460.66;6219232;23;20340;-79
2022/06/10 03:27:09;;;;;;;;;;;;;;;15.49;70.64;98460.09;6218970;23;19927;-77
2022/06/10 03:29:35;;;;;;;;;;;;;;;15.44;70.45;98462.47;6193954;23;19919;-77
2022/06/10 03:32:10;;;;;;;;;;;;;;;15.33;70.78;98465.56;6218830;23;19919;-77
2022/06/10 03:34:40;;;;;;;;;;;;;;;15.23;71.08;98484.59;6218946;23;20007;-78
2022/06/10 03:37:07;;;;;;;;;;;;;;;15.30;71.15;98467.56;6245185;23;19981;-77
2022/06/10 03:39:34;;;;;;;;;;;;;;;15.26;71.24;98471.63;6218905;23;19920;-76
2022/06/10 03:42:03;;;;;;;;;;;;;;;15.38;70.95;98473.94;6193363;23;19919;-77
2022/06/10 03:44:29;;;;;;;;;;;;;;;15.45;71.22;98475.75;6193969;23;19929;-78
2022/06/10 03:46:57;;;;;;;;;;;;;;;15.54;70.66;98479.28;6195827;23;19927;-80
2022/06/10 03:49:33;;;;;;;;;;;;;;;15.63;69.85;98482.75;6220948;23;19998;-77
2022/06/10 03:52:00;;;;;;;;;;;;;;;15.67;69.56;98484.97;6220623;23;19927;-78
2022/06/10 03:54:26;;;;;;;;;;;;;;;15.61;69.15;98485.66;6196597;23;19923;-77
2022/06/10 03:56:52;;;;;;;;;;;;;;;15.61;68.76;98484.78;6222412;23;19919;-79
2022/06/10 03:59:19;;;;;;;;;;;;;;;15.53;69.34;98485.66;6220833;23;19923;-77
2022/06/10 04:01:44;;;;;;;;;;;;;;;15.59;69.58;98487.66;6221061;23;19919;-78
2022/06/10 04:04:10;;;;;;;;;;;;;;;15.62;69.45;98495.41;6221482;23;19919;-84
2022/06/10 04:06:36;;;;;;;;;;;;;;;15.67;69.33;98490.34;6221583;23;20002;-78
2022/06/10 04:09:02;;;;;;;;;;;;;;;15.68;68.68;98496.56;6246115;23;20308;-77
2022/06/10 04:11:27;;;;;;;;;;;;;;;15.60;69.28;98500.09;6247626;23;19942;-77
2022/06/10 04:13:53;;;;;;;;;;;;;;;15.67;69.41;98503.81;6220988;23;19919;-77
2022/06/10 04:16:19;;;;;;;;;;;;;;;15.78;69.62;98497.19;6246524;23;20021;-81
2022/06/10 04:18:45;;;;;;;;;;;;;;;15.86;69.11;98493.63;6221502;23;19943;-79
2022/06/10 04:21:10;;;;;;;;;;;;;;;15.96;68.84;98499.63;6247462;23;19919;-78
2022/06/10 04:23:36;;;;;;;;;;;;;;;16.06;69.21;98512.88;6220319;23;20344;-78
2022/06/10 04:26:02;;;;;;;;;;;;;;;15.99;68.10;98504.66;6220476;23;19920;-81
2022/06/10 04:28:28;;;;;;;;;;;;;;;16.08;68.46;98492.81;6220490;23;19924;-79
2022/06/10 04:30:55;;;;;;;;;;;;;;;16.18;67.75;98496.13;6246041;23;20240;-83
2022/06/10 04:33:21;;;;;;;;;;;;;;;16.11;67.36;98503.25;6245329;23;20298;-77
2022/06/10 04:35:48;;;;;;;;;;;;;;;16.07;68.05;98485.75;6220217;23;19919;-76
2022/06/10 04:38:15;;;;;;;;;;;;;;;16.10;67.47;98501.56;6219701;23;20018;-76
2022/06/10 04:40:41;;;;;;;;;;;;;;;16.30;66.86;98506.50;6195068;23;19927;-75
2022/06/10 04:43:07;;;;;;;;;;;;;;;16.42;66.17;98507.72;6219119;23;19946;-77
2022/06/10 04:45:35;;;;;;;;;;;;;;;16.44;66.19;98503.00;6220180;23;19919;-77
2022/06/10 04:48:00;;;;;;;;;;;;;;;16.68;65.77;98516.28;6196251;23;19920;-78
2022/06/10 04:50:27;;;;;;;;;;;;;;;16.60;65.61;98508.28;6220864;23;19926;-76
2022/06/10 04:52:53;;;;;;;;;;;;;;;16.54;66.69;98519.78;6221534;23;19923;-77
2022/06/10 04:55:19;;;;;;;;;;;;;;;16.73;65.98;98496.84;6220022;23;19930;-77
2022/06/10 04:57:45;;;;;;;;;;;;;;;17.04;64.81;98504.88;6193746;23;20013;-77
2022/06/10 05:00:15;;;;;;;;;;;;;;;17.09;64.71;98505.13;6219663;23;19963;-77
2022/06/10 05:02:42;;;;;;;;;;;;;;;17.41;64.26;98494.97;6219781;23;19923;-75
2022/06/10 05:05:08;;;;;;;;;;;;;;;17.68;63.49;98497.03;6219715;23;20034;-77
2022/06/10 05:07:34;;;;;;;;;;;;;;;18.19;63.67;98491.59;6246761;23;19978;-77
2022/06/10 05:10:00;;;;;;;;;;;;;;;18.43;61.35;98489.56;6220398;23;20346;-76
2022/06/10 05:12:25;;;;;;;;;;;;;;;18.31;61.81;98497.31;6245389;23;19920;-77
2022/06/10 05:14:51;;;;;;;;;;;;;;;18.64;62.07;98486.81;6247111;23;19963;-80
2022/06/10 05:17:17;;;;;;;;;;;;;;;18.85;60.52;98494.09;6246534;23;19920;-75
2022/06/10 05:19:44;;;;;;;;;;;;;;;18.53;60.11;98500.03;6246734;23;19994;-76
2022/06/10 05:22:09;;;;;;;;;;;;;;;18.08;61.32;98502.91;6219479;23;19927;-76
2022/06/10 05:24:35;;;;;;;;;;;;;;;18.11;62.38;98499.00;6219665;23;20255;-77
2022/06/10 05:27:01;;;;;;;;;;;;;;;18.39;62.08;98499.06;6219310;23;19946;-77
2022/06/10 05:29:26;;;;;;;;;;;;;;;18.56;61.33;98508.59;6246465;23;19920;-76
2022/06/10 05:31:52;;;;;;;;;;;;;;;18.46;61.73;98510.78;6219815;23;19926;-79
2022/06/10 05:37:01;;;;;;;;;;;;;;;18.27;61.94;98519.53;6219965;23;19935;-77
2022/06/10 05:39:27;;;;;;;;;;;;;;;18.27;62.45;98516.84;6219891;23;20362;-78
2022/06/10 05:42:05;;;;;;;;;;;;;;;18.44;62.31;98527.22;6239161;23;19920;-78
2022/06/10 05:44:31;;;;;;;;;;;;;;;18.34;62.18;98531.28;6216414;23;19931;-77
2022/06/10 05:46:57;;;;;;;;;;;;;;;18.47;62.45;98528.72;6240427;23;19920;-77
2022/06/10 05:49:23;;;;;;;;;;;;;;;18.91;61.82;98525.78;6215880;23;20367;-81
2022/06/10 05:51:49;;;;;;;;;;;;;;;19.26;60.55;98527.75;6192995;23;19927;-86
2022/06/10 05:54:15;;;;;;;;;;;;;;;19.43;59.48;98529.09;6240701;23;19920;-76
2022/06/10 05:56:43;;;;;;;;;;;;;;;19.24;59.29;98530.63;6215312;23;19920;-77
2022/06/10 05:59:10;;;;;;;;;;;;;;;19.49;59.05;98525.59;6189241;23;19921;-76
2022/06/10 06:01:36;;;;;;;;;;;;;;;19.58;58.27;98532.50;6188807;23;19926;-74
2022/06/10 06:04:02;;;;;;;;;;;;;;;19.71;57.29;98530.91;6214125;23;19919;-77
2022/06/10 06:06:27;;;;;;;;;;;;;;;19.86;56.52;98534.34;6189529;23;20009;-76
2022/06/10 06:08:54;;;;;;;;;;;;;;;19.95;56.27;98537.72;6188992;23;19927;-75
2022/06/10 06:11:20;;;;;;;;;;;;;;;19.95;56.02;98543.97;6214344;23;19920;-77
2022/06/10 06:13:45;;;;;;;;;;;;;;;20.08;56.19;98532.34;6215958;23;19946;-76
2022/06/10 06:16:12;;;;;;;;;;;;;;;19.99;55.38;98528.97;6214528;23;20237;-76
2022/06/10 06:18:38;;;;;;;;;;;;;;;19.74;54.38;98541.38;6189617;23;19951;-76
2022/06/10 06:21:05;;;;;;;;;;;;;;;18.97;56.77;98535.03;6214710;23;19920;-77
2022/06/10 06:23:30;;;;;;;;;;;;;;;18.90;57.60;98532.25;6214210;23;20376;-76
2022/06/10 06:25:56;;;;;;;;;;;;;;;18.85;56.96;98533.88;6216214;23;19920;-79
2022/06/10 06:28:22;;;;;;;;;;;;;;;18.79;56.27;98534.66;6189426;23;19920;-77
2022/06/10 06:30:48;;;;;;;;;;;;;;;18.62;56.76;98532.19;6239638;23;19923;-76
2022/06/10 06:33:13;;;;;;;;;;;;;;;18.95;56.69;98526.25;6239542;23;20352;-77
2022/06/10 06:35:39;;;;;;;;;;;;;;;19.33;56.70;98524.03;6214460;23;19919;-78
2022/06/10 06:38:05;;;;;;;;;;;;;;;19.81;56.24;98528.69;6239907;23;19920;-77
2022/06/10 06:40:32;;;;;;;;;;;;;;;19.84;54.63;98525.56;6215886;23;20358;-76
2022/06/10 06:42:57;;;;;;;;;;;;;;;20.13;55.95;98525.28;6213990;23;19927;-77
2022/06/10 06:45:24;;;;;;;;;;;;;;;20.76;53.27;98533.16;6189262;23;20256;-77
2022/06/10 06:47:51;;;;;;;;;;;;;;;20.55;52.60;98528.72;6239270;23;19920;-78
2022/06/10 06:50:18;;;;;;;;;;;;;;;20.22;52.88;98527.78;6239505;23;19920;-76
2022/06/10 06:52:44;;;;;;;;;;;;;;;20.65;54.10;98522.03;6214371;23;19923;-78
2022/06/10 06:55:10;;;;;;;;;;;;;;;21.06;51.87;98519.13;6214519;23;19951;-75
2022/06/10 06:57:37;;;;;;;;;;;;;;;21.04;51.66;98529.38;6239196;23;19927;-77
2022/06/10 07:00:06;;;;;;;;;;;;;;;20.63;51.79;98532.28;6215678;23;19924;-78
2022/06/10 07:02:33;;;;;;;;;;;;;;;20.83;52.50;98516.84;6214017;23;19970;-76
2022/06/10 07:04:58;;;;;;;;;;;;;;;21.25;51.80;98525.59;6189330;23;19923;-76
2022/06/10 07:07:26;;;;;;;;;;;;;;;21.46;50.78;98522.66;6214263;23;20315;-77
2022/06/10 07:09:51;;;;;;;;;;;;;;;21.54;49.82;98521.59;6214411;23;19927;-76
2022/06/10 07:12:17;;;;;;;;;;;;;;;21.51;50.30;98522.88;6214156;23;19920;-77
2022/06/10 07:14:43;;;;;;;;;;;;;;;21.26;49.88;98519.13;6216127;23;19974;-76
2022/06/10 07:17:09;;;;;;;;;;;;;;;21.03;51.00;98525.84;6214193;23;20348;-76
2022/06/10 07:19:34;;;;;;;;;;;;;;;21.06;51.68;98520.00;6213844;23;19926;-76
2022/06/10 07:22:00;;;;;;;;;;;;;;;21.43;50.32;98527.69;6214320;23;19920;-76
2022/06/10 07:24:26;;;;;;;;;;;;;;;21.04;50.44;98524.78;6213636;23;19927;-77
2022/06/10 07:26:51;;;;;;;;;;;;;;;20.65;51.12;98528.34;6215824;23;19947;-76
2022/06/10 07:29:18;;;;;;;;;;;;;;;20.77;51.26;98521.25;6214211;23;20204;-76
2022/06/10 07:31:44;;;;;;;;;;;;;;;21.10;49.76;98526.66;6213741;23;19920;-77
2022/06/10 07:34:10;;;;;;;;;;;;;;;21.08;49.90;98520.59;6213922;23;20336;-76
2022/06/10 07:36:37;;;;;;;;;;;;;;;21.50;49.81;98515.75;6214085;23;19926;-78
2022/06/10 07:39:02;;;;;;;;;;;;;;;22.26;49.12;98515.03;6213930;23;20229;-77
2022/06/10 07:44:12;;;;;;;;;;;;;;;22.84;46.34;98500.41;6219499;23;19942;-77
2022/06/10 07:46:38;;;;;;;;;;;;;;;22.46;46.96;98512.22;6245053;23;20358;-77
2022/06/10 07:49:03;;;;;;;;;;;;;;;22.27;47.59;98513.19;6245741;23;19920;-76
2022/06/10 07:51:29;;;;;;;;;;;;;;;22.17;45.74;98516.34;6218764;23;19919;-77
2022/06/10 07:53:55;;;;;;;;;;;;;;;21.76;46.70;98514.00;6193886;23;19954;-78
2022/06/10 07:56:22;;;;;;;;;;;;;;;21.98;47.42;98512.66;6219073;23;19943;-76
2022/06/10 07:58:49;;;;;;;;;;;;;;;22.12;47.50;98513.44;6218779;23;19998;-79
2022/06/10 08:01:15;;;;;;;;;;;;;;;22.01;47.03;98512.22;6217416;23;20296;-78
2022/06/10 08:03:41;;;;;;;;;;;;;;;22.07;46.87;98516.78;6245925;23;19920;-79
2022/06/10 08:06:07;;;;;;;;;;;;;;;22.08;47.22;98509.47;6218488;23;20293;-75
2022/06/10 08:08:32;;;;;;;;;;;;;;;22.34;47.07;98508.53;6218340;23;19920;-79
2022/06/10 08:10:58;;;;;;;;;;;;;;;22.48;47.10;98504.63;6192968;23;19924;-75
2022/06/10 08:13:24;;;;;;;;;;;;;;;23.01;47.28;98496.06;6244940;23;19919;-77
2022/06/10 08:15:50;;;;;;;;;;;;;;;23.19;45.73;98499.91;6193608;23;19965;-76
2022/06/10 08:18:18;;;;;;;;;;;;;;;23.21;46.34;98501.38;6218626;23;19923;-80
2022/06/10 08:23:29;;;;;;;;;;;;;;;23.26;45.79;98503.41;6244991;23;19923;-78
2022/06/10 08:25:55;;;;;;;;;;;;;;;23.22;45.49;98508.47;6217079;23;19923;-77
2022/06/10 08:28:22;;;;;;;;;;;;;;;22.89;45.70;98506.00;6244731;23;19920;-77
2022/06/10 08:30:48;;;;;;;;;;;;;;;22.47;47.05;98516.59;6218438;23;20328;-78
2022/06/10 08:33:13;;;;;;;;;;;;;;;22.38;48.02;98515.19;6220210;23;19942;-76
2022/06/10 08:35:39;;;;;;;;;;;;;;;22.32;49.24;98517.97;6248095;23;19919;-78
2022/06/10 08:38:06;;;;;;;;;;;;;;;22.03;50.91;98518.25;6246946;23;19954;-78
2022/06/10 08:40:33;;;;;;;;;;;;;;;21.46;52.48;98514.50;6194505;23;19923;-81
2022/06/10 08:43:06;;;;;;;;;;;;;;;21.61;52.82;98521.56;6219931;23;20257;-79
2022/06/10 08:45:48;;;;;;;;;;;;;;;21.69;53.03;98518.63;6218672;23;22776;-79
2022/06/10 08:48:33;;;;;;;;;;;;;;;21.82;53.92;98510.44;6220174;23;19957;-79
2022/06/10 08:50:59;;;;;;;;;;;;;;;22.03;53.54;98504.66;6195703;23;19933;-76
2022/06/10 08:53:33;;;;;;;;;;;;;;;22.19;52.09;98505.22;6246932;23;20002;-85
2022/06/10 08:56:03;;;;;;;;;;;;;;;22.47;51.77;98505.69;6219438;23;19924;-79
2022/06/10 08:58:37;;;;;;;;;;;;;;;22.85;52.05;98512.13;6247087;23;20009;-78
2022/06/10 09:01:06;;;;;;;;;;;;;;;23.44;50.35;98497.97;6195519;23;19965;-79
2022/06/10 09:03:40;;;;;;;;;;;;;;;23.97;48.69;98493.81;6219722;23;19919;-79
2022/06/10 09:06:09;;;;;;;;;;;;;;;24.44;48.40;98494.84;6220225;23;19924;-79
2022/06/10 09:08:37;;;;;;;;;;;;;;;24.20;46.65;98493.09;6195128;23;19923;-77
2022/06/10 09:11:15;;;;;;;;;;;;;;;24.22;46.77;98502.72;6194108;23;19954;-78
2022/06/10 09:13:46;;;;;;;;;;;;;;;24.47;45.96;98494.38;6246653;23;20248;-77
2022/06/10 09:16:21;;;;;;;;;;;;;;;24.83;44.60;98492.56;6219980;23;19920;-79
2022/06/10 09:18:50;;;;;;;;;;;;;;;24.95;44.24;98492.59;6219695;23;19920;-78
2022/06/10 09:21:24;;;;;;;;;;;;;;;24.81;44.33;98494.69;6219523;23;20348;-78
2022/06/10 09:23:52;;;;;;;;;;;;;;;24.47;45.13;98488.94;6246235;23;20005;-78
2022/06/10 09:26:33;;;;;;;;;;;;;;;24.37;44.84;98477.72;6219388;23;19920;-82
2022/06/10 09:28:59;;;;;;;;;;;;;;;24.20;45.51;98495.81;6220439;23;19954;-79
2022/06/10 09:31:25;;;;;;;;;;;;;;;24.15;45.11;98495.69;6245781;23;19966;-76
2022/06/10 09:33:51;;;;;;;;;;;;;;;24.01;45.41;98494.19;6219649;23;20256;-80
2022/06/10 09:36:27;;;;;;;;;;;;;;;24.08;45.81;98494.94;6246625;23;19927;-77
2022/06/10 09:39:00;;;;;;;;;;;;;;;24.38;45.96;98495.75;6220011;23;19974;-77
2022/06/10 09:41:41;;;;;;;;;;;;;;;25.32;44.92;98485.00;6218750;23;19926;-79
2022/06/10 09:44:26;;;;;;;;;;;;;;;26.05;42.55;98480.81;6219944;23;19942;-77
2022/06/10 09:46:51;;;;;;;;;;;;;;;26.06;41.95;98474.25;6194806;23;20252;-79
2022/06/10 09:49:20;;;;;;;;;;;;;;;25.97;41.95;98470.25;6244348;23;19919;-79
2022/06/10 09:52:09;;;;;;;;;;;;;;;25.80;42.70;98467.47;6219334;23;19919;-78
2022/06/10 09:54:49;;;;;;;;;;;;;;;25.88;42.47;98469.81;6203928;23;19920;-78
2022/06/10 09:57:25;;;;;;;;;;;;;;;25.79;42.35;98479.47;6219492;23;19919;-78
2022/06/10 09:59:51;;;;;;;;;;;;;;;25.09;41.93;98490.47;6246766;23;19970;-78
2022/06/10 10:02:40;;;;;;;;;;;;;;;24.54;43.01;98483.38;6245928;23;19919;-77
2022/06/10 10:05:21;;;;;;;;;;;;;;;25.23;41.00;98478.22;6229914;23;20347;-76
2022/06/10 10:07:47;;;;;;;;;;;;;;;26.46;39.74;98478.88;6219430;23;19945;-80
2022/06/10 10:10:20;;;;;;;;;;;;;;;27.02;37.74;98470.78;6218441;23;19919;-79
2022/06/10 10:12:45;;;;;;;;;;;;;;;27.05;36.65;98471.09;6246048;23;19980;-78
2022/06/10 10:15:14;;;;;;;;;;;;;;;26.42;36.89;98468.63;6219212;23;19998;-77
2022/06/10 10:17:46;;;;;;;;;;;;;;;25.09;39.30;98474.88;6245806;23;19925;-81
2022/06/10 10:20:38;;;;;;;;;;;;;;;25.28;39.64;98474.78;6219216;23;20309;-80
2022/06/10 10:23:10;;;;;;;;;;;;;;;25.46;39.73;98471.06;6219079;23;20343;-76
2022/06/10 10:25:37;;;;;;;;;;;;;;;25.35;39.19;98473.59;6244526;23;19920;-79
2022/06/10 10:28:13;;;;;;;;;;;;;;;25.60;38.80;98476.03;6244466;23;19926;-78
2022/06/10 10:30:45;;;;;;;;;;;;;;;26.50;38.22;98473.75;6193062;23;19985;-86
2022/06/10 10:33:13;;;;;;;;;;;;;;;26.96;37.48;98460.78;6194266;23;20002;-78
2022/06/10 10:35:41;;;;;;;;;;;;;;;26.64;38.32;98464.97;6219321;23;19919;-77
2022/06/10 10:38:08;;;;;;;;;;;;;;;26.26;38.92;98462.88;6246534;23;20251;-79
2022/06/10 10:40:39;;;;;;;;;;;;;;;25.85;38.70;98461.25;6219602;23;19943;-78
2022/06/10 10:43:07;;;;;;;;;;;;;;;25.58;38.94;98480.13;6193674;23;20022;-78
2022/06/10 10:45:34;;;;;;;;;;;;;;;26.11;38.68;98465.34;6194480;23;20243;-77
2022/06/10 10:48:17;;;;;;;;;;;;;;;26.29;38.43;98467.88;6194591;23;19931;-78
2022/06/10 10:50:51;;;;;;;;;;;;;;;27.17;36.99;98462.81;6193761;23;19927;-77
2022/06/10 10:53:44;;;;;;;;;;;;;;;27.39;36.83;98459.28;6193970;23;19920;-76
2022/06/10 10:56:11;;;;;;;;;;;;;;;27.26;36.28;98450.31;6211853;23;19947;-78
2022/06/10 10:58:38;;;;;;;;;;;;;;;26.66;36.86;98452.91;6192760;23;19947;-76
2022/06/10 11:01:08;;;;;;;;;;;;;;;25.75;38.00;98464.59;6218079;23;19943;-78
2022/06/10 11:03:45;;;;;;;;;;;;;;;25.29;39.25;98458.13;6192670;23;19920;-78
2022/06/10 11:06:24;;;;;;;;;;;;;;;26.82;37.70;98450.19;6217394;23;19931;-77
2022/06/10 11:08:58;;;;;;;;;;;;;;;28.05;35.45;98454.63;6218159;23;19946;-78
2022/06/10 11:11:28;;;;;;;;;;;;;;;27.18;35.75;98450.75;6217335;23;19920;-76
2022/06/10 11:13:56;;;;;;;;;;;;;;;27.02;36.55;98448.81;6217695;23;19923;-77
2022/06/10 11:16:31;;;;;;;;;;;;;;;26.62;37.57;98450.66;6192879;23;20005;-80
2022/06/10 11:19:00;;;;;;;;;;;;;;;26.43;37.03;98446.47;6217778;23;19926;-76
2022/06/10 11:21:26;;;;;;;;;;;;;;;26.69;37.13;98444.19;6217027;23;20014;-79
2022/06/10 11:23:54;;;;;;;;;;;;;;;26.39;37.56;98446.13;6192385;23;19919;-77
2022/06/10 11:26:22;;;;;;;;;;;;;;;25.77;38.49;98446.03;6192779;23;19951;-79
2022/06/10 11:28:49;;;;;;;;;;;;;;;25.59;39.20;98457.13;6192558;23;19921;-79
2022/06/10 11:31:31;;;;;;;;;;;;;;;25.19;39.76;98452.44;6192135;23;19920;-76
2022/06/10 11:33:58;;;;;;;;;;;;;;;25.13;40.36;98447.94;6192616;23;20354;-78
2022/06/10 11:36:26;;;;;;;;;;;;;;;24.65;40.65;98443.47;6192516;23;19923;-77
2022/06/10 11:38:54;;;;;;;;;;;;;;;24.38;41.72;98452.06;6192866;23;19954;-78
2022/06/10 11:41:30;;;;;;;;;;;;;;;24.03;42.25;98445.63;6217332;23;20002;-78
2022/06/10 11:44:16;;;;;;;;;;;;;;;23.84;43.11;98456.59;6192949;23;20224;-78
2022/06/10 11:46:42;;;;;;;;;;;;;;;23.82;42.91;98456.00;6217357;23;19926;-77
2022/06/10 11:49:28;;;;;;;;;;;;;;;23.73;43.75;98463.69;6219050;23;20018;-77
2022/06/10 11:51:57;;;;;;;;;;;;;;;24.12;43.61;98453.28;6168725;23;20299;-77
2022/06/10 11:54:34;;;;;;;;;;;;;;;24.62;42.62;98457.59;6218956;23;19919;-76
2022/06/10 11:59:50;;;;;;;;;;;;;;;25.43;39.87;98456.81;6245388;23;20324;-78
2022/06/10 12:02:31;;;;;;;;;;;;;;;25.50;40.17;98448.47;6243922;23;19920;-77
2022/06/10 12:05:06;;;;;;;;;;;;;;;26.18;39.49;98444.13;6246476;23;19931;-77
2022/06/10 12:07:34;;;;;;;;;;;;;;;27.96;36.83;98447.94;6220955;23;19924;-77
2022/06/10 12:10:02;;;;;;;;;;;;;;;29.01;34.19;98442.91;6220839;23;19923;-79
2022/06/10 12:12:30;;;;;;;;;;;;;;;30.29;33.93;98441.59;6196084;23;19920;-77
2022/06/10 12:14:58;;;;;;;;;;;;;;;31.09;30.93;98436.38;6220675;23;19930;-76
2022/06/10 12:17:28;;;;;;;;;;;;;;;31.74;30.07;98433.72;6221180;23;19951;-76
2022/06/10 12:19:56;;;;;;;;;;;;;;;31.79;29.79;98428.19;6220726;23;19919;-78
2022/06/10 12:22:22;;;;;;;;;;;;;;;31.62;29.98;98428.53;6246407;23;19924;-76
2022/06/10 12:24:49;;;;;;;;;;;;;;;32.23;29.07;98432.13;6220846;23;19920;-77
2022/06/10 12:27:22;;;;;;;;;;;;;;;33.66;27.57;98417.84;6195533;23;20331;-74
2022/06/10 12:30:02;;;;;;;;;;;;;;;34.66;26.02;98417.84;6194961;23;19923;-77
2022/06/10 12:32:39;;;;;;;;;;;;;;;35.69;24.97;98423.19;6194346;23;20062;-77
2022/06/10 12:35:15;;;;;;;;;;;;;;;35.39;24.51;98430.97;6219224;23;19927;-77
2022/06/10 12:37:40;;;;;;;;;;;;;;;34.62;24.70;98439.84;6220185;23;19920;-80
2022/06/10 12:40:06;;;;;;;;;;;;;;;34.92;25.63;98421.84;6220187;23;19931;-87
2022/06/10 12:42:32;;;;;;;;;;;;;;;36.03;23.87;98421.94;6228869;23;20409;-84
2022/06/10 12:45:00;;;;;;;;;;;;;;;35.96;23.30;98423.19;6223649;23;19930;-81
2022/06/10 12:47:33;;;;;;;;;;;;;;;34.50;24.88;98426.44;6247442;23;19920;-81
2022/06/10 12:50:00;;;;;;;;;;;;;;;32.66;26.38;98429.66;6223990;23;19930;-80
2022/06/10 12:52:44;;;;;;;;;;;;;;;33.25;25.68;98426.63;6220978;23;19942;-79
2022/06/10 12:55:22;;;;;;;;;;;;;;;33.52;25.29;98420.53;6220708;23;19923;-80
2022/06/10 12:57:48;;;;;;;;;;;;;;;34.18;24.29;98431.88;6220234;23;19919;-81
2022/06/10 13:00:23;;;;;;;;;;;;;;;34.80;24.37;98424.28;6246917;23;19926;-83
2022/06/10 13:02:56;;;;;;;;;;;;;;;35.47;23.21;98421.94;6219699;23;20024;-79
2022/06/10 13:05:22;;;;;;;;;;;;;;;35.20;22.87;98421.91;6246061;23;20306;-79
2022/06/10 13:07:49;;;;;;;;;;;;;;;35.76;23.03;98420.81;6220184;23;19919;-78
2022/06/10 13:10:33;;;;;;;;;;;;;;;36.40;22.79;98421.63;6246915;23;19919;-78
2022/06/10 13:13:05;;;;;;;;;;;;;;;35.89;22.54;98421.94;6220051;23;19927;-79
2022/06/10 13:15:31;;;;;;;;;;;;;;;35.12;23.38;98420.66;6194965;23;19927;-82
2022/06/10 13:18:00;;;;;;;;;;;;;;;35.58;23.04;98422.56;6219485;23;19919;-80